Time;durP1;ratioP1;P1;durP2;ratioP2;P2;SDS_P1;SDS_P2;PMS_P1;PMS_P2;Temp;Humidity;BMP_temperature;BMP_pressure;BME280_temperature;BME280_humidity;BME280_pressure;Samples;Min_cycle;Max_cycle;Signal;HPM_P1;HPM_P2
2021/08/21 00:00:16;;;;;;;14.27;11.43;;;18.30;99.90;;;;;;5052653;28;20903;-60
2021/08/21 00:02:43;;;;;;;15.07;12.13;;;18.20;99.90;;;;;;5052749;28;20835;-60
2021/08/21 00:05:11;;;;;;;16.93;10.33;;;18.20;99.90;;;;;;5053094;28;20498;-60
2021/08/21 00:07:38;;;;;;;11.80;10.10;;;18.30;99.90;;;;;;5052681;28;20801;-60
2021/08/21 00:10:08;;;;;;;18.83;11.53;;;18.20;99.90;;;;;;5052478;28;20451;-60
2021/08/21 00:12:35;;;;;;;14.47;11.57;;;18.20;99.90;;;;;;5052902;28;20496;-59
2021/08/21 00:15:03;;;;;;;14.17;11.57;;;18.20;99.90;;;;;;5033062;28;20453;-60
2021/08/21 00:17:30;;;;;;;16.60;11.93;;;18.10;99.90;;;;;;5047175;28;20513;-60
2021/08/21 00:19:57;;;;;;;17.13;12.00;;;18.10;99.90;;;;;;5052613;28;20483;-60
2021/08/21 00:22:24;;;;;;;21.07;12.07;;;18.00;99.90;;;;;;5052153;28;20471;-60
2021/08/21 00:24:51;;;;;;;16.00;12.53;;;17.90;99.90;;;;;;5052780;28;20817;-60
2021/08/21 00:27:19;;;;;;;13.57;10.10;;;17.80;99.90;;;;;;5052420;28;20517;-60
2021/08/21 00:29:46;;;;;;;13.70;11.30;;;17.90;99.90;;;;;;5051997;28;20594;-60
2021/08/21 00:32:14;;;;;;;14.23;11.37;;;17.80;99.90;;;;;;5052318;28;20467;-60
2021/08/21 00:34:41;;;;;;;14.77;10.87;;;17.80;99.90;;;;;;5051770;28;20490;-60
2021/08/21 00:37:08;;;;;;;14.37;11.23;;;17.70;99.90;;;;;;5052789;28;20452;-59
2021/08/21 00:39:35;;;;;;;14.90;10.50;;;17.70;99.90;;;;;;5049771;28;20456;-59
2021/08/21 00:42:02;;;;;;;18.23;11.30;;;17.70;99.90;;;;;;5051522;28;20894;-60
2021/08/21 00:44:30;;;;;;;13.17;10.00;;;17.80;99.90;;;;;;5051936;28;20884;-59
2021/08/21 00:47:00;;;;;;;15.33;10.20;;;17.70;99.90;;;;;;5051185;28;20440;-60
2021/08/21 00:49:28;;;;;;;13.97;10.03;;;17.80;99.90;;;;;;5052071;28;20483;-60
2021/08/21 00:51:56;;;;;;;12.77;10.37;;;17.80;99.90;;;;;;5051348;28;20736;-60
2021/08/21 00:54:23;;;;;;;13.97;10.70;;;17.80;99.90;;;;;;5032422;28;20436;-60
2021/08/21 00:56:51;;;;;;;11.70;9.87;;;17.80;99.90;;;;;;5036545;28;20448;-59
2021/08/21 00:59:19;;;;;;;12.30;10.17;;;17.80;99.90;;;;;;5049624;28;20452;-60
2021/08/21 01:01:47;;;;;;;14.53;10.70;;;17.80;99.90;;;;;;5050856;28;20617;-60
2021/08/21 01:04:15;;;;;;;13.27;10.63;;;17.80;99.90;;;;;;5051815;28;20474;-59
2021/08/21 01:06:42;;;;;;;13.77;10.40;;;17.80;99.90;;;;;;5051599;28;20882;-60
2021/08/21 01:09:09;;;;;;;14.13;10.43;;;17.80;99.90;;;;;;5051508;28;20874;-60
2021/08/21 01:11:36;;;;;;;12.73;10.80;;;17.70;99.90;;;;;;5051661;28;20870;-60
2021/08/21 01:14:04;;;;;;;10.90;9.73;;;17.60;99.90;;;;;;5051226;28;20506;-60
2021/08/21 01:16:31;;;;;;;12.57;9.70;;;17.70;99.90;;;;;;5051252;28;20459;-60
2021/08/21 01:19:00;;;;;;;14.57;10.90;;;17.70;99.90;;;;;;5051376;28;20451;-59
2021/08/21 01:21:27;;;;;;;12.60;10.37;;;17.60;99.90;;;;;;5051621;28;20483;-60
2021/08/21 01:23:54;;;;;;;13.77;10.97;;;17.60;99.90;;;;;;5051301;28;21026;-60
2021/08/21 01:26:21;;;;;;;15.00;10.10;;;17.60;99.90;;;;;;5051371;28;20452;-60
2021/08/21 01:28:50;;;;;;;16.23;11.83;;;17.70;99.90;;;;;;5050976;28;20452;-60
2021/08/21 01:31:17;;;;;;;15.50;10.87;;;17.60;99.90;;;;;;5050739;28;20475;-60
2021/08/21 01:33:44;;;;;;;15.17;10.47;;;17.70;99.90;;;;;;5050437;28;20448;-60
2021/08/21 01:36:11;;;;;;;13.63;10.70;;;17.60;99.90;;;;;;5051405;28;21012;-60
2021/08/21 01:38:55;;;;;;;15.47;10.50;;;17.60;99.90;;;;;;5050976;28;20498;-60
2021/08/21 01:41:22;;;;;;;12.63;10.30;;;17.60;99.90;;;;;;5050841;28;20515;-59
2021/08/21 01:43:51;;;;;;;14.43;11.30;;;17.60;99.90;;;;;;5036130;28;20955;-59
2021/08/21 01:46:18;;;;;;;16.90;11.90;;;17.50;99.90;;;;;;5050482;28;20456;-59
2021/08/21 01:48:45;;;;;;;15.97;12.00;;;17.30;99.90;;;;;;5050964;28;20460;-60
2021/08/21 01:51:12;;;;;;;17.10;12.43;;;17.30;99.90;;;;;;5051384;28;20463;-59
2021/08/21 01:53:39;;;;;;;12.60;10.47;;;17.30;99.90;;;;;;5050413;28;20459;-60
2021/08/21 01:56:06;;;;;;;13.90;10.23;;;17.30;99.90;;;;;;5051580;28;20455;-60
2021/08/21 01:58:33;;;;;;;13.13;11.03;;;17.30;99.90;;;;;;5046772;28;21023;-59
2021/08/21 02:01:04;;;;;;;14.10;11.43;;;17.40;99.90;;;;;;5051117;28;20490;-59
2021/08/21 02:03:31;;;;;;;12.70;9.80;;;17.40;99.90;;;;;;5050082;28;20502;-59
2021/08/21 02:05:58;;;;;;;16.27;11.90;;;17.40;99.90;;;;;;5050682;28;20509;-59
2021/08/21 02:08:25;;;;;;;16.97;11.20;;;17.40;99.90;;;;;;5051048;28;20444;-60
2021/08/21 02:10:52;;;;;;;14.40;10.70;;;17.30;99.90;;;;;;5052648;28;20444;-60
2021/08/21 02:13:19;;;;;;;13.83;11.67;;;17.30;99.90;;;;;;5054910;28;20521;-59
2021/08/21 02:15:46;;;;;;;15.40;11.17;;;17.30;99.90;;;;;;5054874;28;20497;-60
2021/08/21 02:18:14;;;;;;;14.50;11.33;;;17.30;99.90;;;;;;5054623;28;20458;-60
2021/08/21 02:20:42;;;;;;;16.07;11.27;;;17.30;99.90;;;;;;5041477;28;20998;-59
2021/08/21 02:23:09;;;;;;;13.17;10.90;;;17.30;99.90;;;;;;5049988;28;20507;-59
2021/08/21 02:25:36;;;;;;;15.20;10.90;;;17.30;99.90;;;;;;5045890;28;20971;-59
2021/08/21 02:28:07;;;;;;;13.10;10.40;;;17.30;99.90;;;;;;5054503;28;20444;-59
2021/08/21 02:30:36;;;;;;;14.00;11.30;;;17.30;99.90;;;;;;5052838;28;20440;-60
2021/08/21 02:33:04;;;;;;;13.20;11.00;;;17.30;99.90;;;;;;5054044;28;20470;-59
2021/08/21 02:35:33;;;;;;;15.70;10.80;;;17.30;99.90;;;;;;5050773;28;20879;-60
2021/08/21 02:38:01;;;;;;;13.10;11.23;;;17.20;99.90;;;;;;5035218;28;20449;-59
2021/08/21 02:40:29;;;;;;;15.57;10.60;;;17.10;99.90;;;;;;5052852;28;20455;-60
2021/08/21 02:42:56;;;;;;;13.87;10.67;;;17.10;99.90;;;;;;5053463;28;20466;-59
2021/08/21 02:45:23;;;;;;;16.97;11.57;;;17.10;99.90;;;;;;5050045;28;20451;-59
2021/08/21 02:47:50;;;;;;;14.43;11.40;;;17.10;99.90;;;;;;5054058;28;20447;-60
2021/08/21 02:50:17;;;;;;;16.67;11.63;;;17.20;99.90;;;;;;5052836;28;20535;-60
2021/08/21 02:52:46;;;;;;;18.40;12.50;;;17.10;99.90;;;;;;5035530;28;20970;-59
2021/08/21 02:55:13;;;;;;;14.70;11.80;;;17.10;99.90;;;;;;5049730;28;20447;-59
2021/08/21 02:57:40;;;;;;;14.70;11.23;;;17.00;99.90;;;;;;5053175;28;20937;-60
2021/08/21 03:00:08;;;;;;;15.33;10.83;;;17.00;99.90;;;;;;5053165;28;20465;-60
2021/08/21 03:02:35;;;;;;;13.90;11.03;;;17.00;99.90;;;;;;5052797;28;20582;-60
2021/08/21 03:05:02;;;;;;;15.13;11.13;;;17.00;99.90;;;;;;5049929;28;20498;-59
2021/08/21 03:07:29;;;;;;;15.50;10.77;;;16.90;99.90;;;;;;5047695;28;20452;-59
2021/08/21 03:09:58;;;;;;;17.17;12.50;;;16.90;99.90;;;;;;5038786;28;20452;-60
2021/08/21 03:12:26;;;;;;;15.10;11.50;;;16.80;99.90;;;;;;5044575;28;20467;-60
2021/08/21 03:14:53;;;;;;;15.37;10.90;;;16.80;99.90;;;;;;5054175;28;20493;-60
2021/08/21 03:17:20;;;;;;;13.47;10.73;;;16.90;99.90;;;;;;5052741;28;20453;-59
2021/08/21 03:19:47;;;;;;;15.70;11.33;;;16.90;99.90;;;;;;5036250;28;20456;-59
2021/08/21 03:22:14;;;;;;;14.17;11.50;;;16.90;99.90;;;;;;5033098;28;20913;-60
2021/08/21 03:24:42;;;;;;;13.87;11.00;;;17.00;99.90;;;;;;5053433;28;20487;-60
2021/08/21 03:27:10;;;;;;;14.27;10.70;;;16.90;99.90;;;;;;5043045;28;20448;-60
2021/08/21 03:29:37;;;;;;;18.80;11.47;;;16.90;99.90;;;;;;5041894;28;20447;-59
2021/08/21 03:32:05;;;;;;;13.80;10.90;;;16.90;99.90;;;;;;5040459;28;20468;-59
2021/08/21 03:34:32;;;;;;;12.27;10.43;;;16.90;99.90;;;;;;5037900;28;20518;-60
2021/08/21 03:37:00;;;;;;;13.80;10.40;;;16.90;99.90;;;;;;5039457;28;20460;-60
2021/08/21 03:39:27;;;;;;;15.13;11.17;;;17.00;99.90;;;;;;5033972;28;20532;-60
2021/08/21 03:41:54;;;;;;;12.57;9.80;;;16.90;99.90;;;;;;5051016;28;20479;-60
2021/08/21 03:44:23;;;;;;;13.20;11.60;;;16.80;99.90;;;;;;5043279;28;20452;-60
2021/08/21 03:46:50;;;;;;;14.73;11.73;;;16.80;99.90;;;;;;5037808;28;20455;-60
2021/08/21 03:49:17;;;;;;;12.67;10.17;;;16.80;99.90;;;;;;5052184;28;20459;-60
2021/08/21 03:51:44;;;;;;;14.30;10.40;;;16.80;99.90;;;;;;5052277;28;20463;-60
2021/08/21 03:54:11;;;;;;;13.03;10.80;;;16.70;99.90;;;;;;5052082;28;20490;-60
2021/08/21 03:56:38;;;;;;;12.63;9.40;;;16.70;99.90;;;;;;5052258;28;20451;-59
2021/08/21 03:59:05;;;;;;;13.20;10.90;;;16.70;99.90;;;;;;5052464;28;20448;-60
2021/08/21 04:01:35;;;;;;;13.97;10.50;;;16.70;99.90;;;;;;5049128;28;20514;-59
2021/08/21 04:04:02;;;;;;;13.73;10.60;;;16.70;99.90;;;;;;5036243;28;20962;-60
2021/08/21 04:06:29;;;;;;;13.93;10.90;;;16.70;99.90;;;;;;5040969;28;20973;-60
2021/08/21 04:08:56;;;;;;;13.63;10.60;;;16.70;99.90;;;;;;5049911;28;20482;-59
2021/08/21 04:11:23;;;;;;;17.10;12.40;;;16.70;99.90;;;;;;5052255;28;20471;-59
2021/08/21 04:13:50;;;;;;;13.77;10.60;;;16.70;99.90;;;;;;5053132;28;20518;-59
2021/08/21 04:16:18;;;;;;;14.50;11.33;;;16.60;99.90;;;;;;5043526;28;20973;-59
2021/08/21 04:18:47;;;;;;;13.27;11.30;;;16.60;99.90;;;;;;5052729;28;20462;-59
2021/08/21 04:21:14;;;;;;;14.83;11.07;;;16.50;99.90;;;;;;5052909;28;20491;-59
2021/08/21 04:23:41;;;;;;;13.57;10.97;;;16.50;99.90;;;;;;5052637;28;20937;-59
2021/08/21 04:26:08;;;;;;;12.83;10.47;;;16.50;99.90;;;;;;5052314;28;20501;-60
2021/08/21 04:28:35;;;;;;;14.80;11.47;;;16.50;99.90;;;;;;5052323;28;20506;-60
2021/08/21 04:31:02;;;;;;;15.00;11.47;;;16.60;99.90;;;;;;5052324;28;20452;-59
2021/08/21 04:33:29;;;;;;;15.43;10.77;;;16.50;99.90;;;;;;5051231;28;20464;-59
2021/08/21 04:35:57;;;;;;;14.27;10.47;;;16.60;99.90;;;;;;5044555;28;20502;-59
2021/08/21 04:38:24;;;;;;;13.27;10.30;;;16.50;99.90;;;;;;5032489;28;20452;-59
2021/08/21 04:40:51;;;;;;;14.40;11.70;;;16.60;99.90;;;;;;5052436;28;20443;-59
2021/08/21 04:43:19;;;;;;;15.43;10.50;;;16.50;99.90;;;;;;5052206;28;20514;-59
2021/08/21 04:45:46;;;;;;;14.20;9.93;;;16.60;99.90;;;;;;5052607;28;20451;-59
2021/08/21 04:48:13;;;;;;;12.67;10.27;;;16.60;99.90;;;;;;5052422;28;20498;-59
2021/08/21 04:50:40;;;;;;;10.60;8.67;;;16.70;99.90;;;;;;5052153;28;20452;-59
2021/08/21 04:53:08;;;;;;;12.83;10.10;;;16.80;99.90;;;;;;5051917;28;20475;-59
2021/08/21 04:55:35;;;;;;;13.47;10.80;;;16.90;99.90;;;;;;5052320;28;20456;-59
2021/08/21 04:58:03;;;;;;;12.10;9.30;;;17.00;99.90;;;;;;5052210;28;20448;-59
2021/08/21 05:00:30;;;;;;;12.27;9.83;;;17.10;99.90;;;;;;5052282;28;20443;-59
2021/08/21 05:02:58;;;;;;;12.17;9.90;;;17.10;99.90;;;;;;5051238;28;20491;-59
2021/08/21 05:05:26;;;;;;;10.83;9.60;;;17.20;99.90;;;;;;5051899;28;20564;-60
2021/08/21 05:07:54;;;;;;;12.63;10.30;;;17.20;99.90;;;;;;5048253;28;21311;-59
2021/08/21 05:10:23;;;;;;;13.83;8.90;;;17.40;99.90;;;;;;5051830;28;20201;-59
2021/08/21 05:12:50;;;;;;;17.57;10.87;;;17.40;99.90;;;;;;5050736;28;21043;-60
2021/08/21 05:15:17;;;;;;;11.20;9.97;;;17.50;99.90;;;;;;5051477;28;20543;-59
2021/08/21 05:17:45;;;;;;;10.83;9.57;;;17.50;99.90;;;;;;5051627;28;20447;-59
2021/08/21 05:20:17;;;;;;;10.00;8.60;;;17.50;99.90;;;;;;5050585;28;20460;-59
2021/08/21 05:22:59;;;;;;;11.23;8.40;;;17.50;99.90;;;;;;5051052;28;20486;-59
2021/08/21 05:25:28;;;;;;;11.10;8.30;;;17.60;99.90;;;;;;5039882;28;20467;-59
2021/08/21 05:27:55;;;;;;;10.10;7.93;;;17.80;99.90;;;;;;5042884;28;20844;-60
2021/08/21 05:30:27;;;;;;;14.00;9.00;;;18.10;99.90;;;;;;5048293;28;20479;-59
2021/08/21 05:32:54;;;;;;;9.30;8.30;;;18.40;99.90;;;;;;5033702;28;20460;-59
2021/08/21 05:35:21;;;;;;;11.37;8.77;;;18.80;99.90;;;;;;5035002;28;20901;-60
2021/08/21 05:37:49;;;;;;;12.97;8.90;;;19.20;99.90;;;;;;5050583;28;20455;-60
2021/08/21 05:40:16;;;;;;;11.00;8.40;;;19.50;99.90;;;;;;5043525;28;20522;-60
2021/08/21 05:42:44;;;;;;;11.17;8.40;;;20.00;99.90;;;;;;5030952;28;20487;-60
2021/08/21 05:45:12;;;;;;;8.77;7.80;;;20.30;99.90;;;;;;5045053;28;20464;-60
2021/08/21 05:47:39;;;;;;;10.10;8.70;;;20.60;99.90;;;;;;5050003;28;20479;-60
2021/08/21 05:50:08;;;;;;;10.93;9.40;;;21.00;99.90;;;;;;5051128;28;21004;-59
2021/08/21 05:52:35;;;;;;;10.17;8.20;;;21.30;99.90;;;;;;5053589;28;20464;-59
2021/08/21 05:55:02;;;;;;;9.97;8.10;;;21.70;99.90;;;;;;5050841;28;20480;-60
2021/08/21 05:57:29;;;;;;;11.37;8.70;;;22.10;99.90;;;;;;5050107;28;20447;-60
2021/08/21 05:59:58;;;;;;;10.43;8.83;;;22.50;99.90;;;;;;5058943;28;20513;-60
2021/08/21 06:02:27;;;;;;;11.20;9.30;;;22.70;99.90;;;;;;5047705;28;20848;-60
2021/08/21 06:04:54;;;;;;;8.80;7.73;;;23.00;99.90;;;;;;5042418;28;20443;-60
2021/08/21 06:07:22;;;;;;;9.10;7.90;;;23.40;99.90;;;;;;5046756;28;20452;-60
2021/08/21 06:09:49;;;;;;;10.30;7.50;;;23.60;99.90;;;;;;5044712;28;20463;-59
2021/08/21 06:12:16;;;;;;;8.40;7.50;;;23.90;99.90;;;;;;5045309;28;20486;-59
2021/08/21 06:14:44;;;;;;;10.20;7.90;;;24.10;99.90;;;;;;5049581;28;20505;-60
2021/08/21 06:17:12;;;;;;;8.60;6.80;;;24.20;99.90;;;;;;5051077;28;20452;-60
2021/08/21 06:19:40;;;;;;;8.90;7.10;;;24.40;99.90;;;;;;5050774;28;20447;-59
2021/08/21 06:22:07;;;;;;;9.53;7.73;;;24.70;99.90;;;;;;5050511;28;20867;-60
2021/08/21 06:24:34;;;;;;;9.03;7.60;;;25.20;99.90;;;;;;5050651;28;20949;-60
2021/08/21 06:27:01;;;;;;;8.50;7.60;;;25.50;99.90;;;;;;5049849;28;20452;-60
2021/08/21 06:29:34;;;;;;;9.97;7.90;;;25.70;99.90;;;;;;5050206;28;20440;-61
2021/08/21 06:32:02;;;;;;;8.67;7.50;;;25.90;99.90;;;;;;5044272;28;20464;-60
2021/08/21 06:34:30;;;;;;;10.27;7.50;;;25.50;99.90;;;;;;5049630;28;20536;-61
2021/08/21 06:36:57;;;;;;;8.13;7.10;;;25.20;99.90;;;;;;5050139;28;20455;-61
2021/08/21 06:39:24;;;;;;;7.90;7.17;;;25.30;99.90;;;;;;5049469;28;20451;-61
2021/08/21 06:41:51;;;;;;;8.50;7.70;;;25.70;99.90;;;;;;5050097;28;20463;-61
2021/08/21 06:44:18;;;;;;;8.07;6.63;;;25.80;99.90;;;;;;5049713;28;20448;-61
2021/08/21 06:46:46;;;;;;;9.53;7.50;;;26.00;99.90;;;;;;5049569;28;20528;-61
2021/08/21 06:49:12;;;;;;;8.40;6.63;;;26.10;99.90;;;;;;5050659;28;20509;-61
2021/08/21 06:51:41;;;;;;;8.93;7.50;;;26.20;99.90;;;;;;5041336;28;20476;-61
2021/08/21 06:54:08;;;;;;;9.10;7.20;;;26.60;99.90;;;;;;5046349;28;20503;-61
2021/08/21 06:56:35;;;;;;;8.97;6.97;;;27.10;99.90;;;;;;5031924;28;21202;-61
2021/08/21 06:59:02;;;;;;;8.13;6.70;;;27.20;99.90;;;;;;5045075;28;20447;-61
2021/08/21 07:01:29;;;;;;;7.27;6.57;;;27.10;99.90;;;;;;5054029;28;20529;-61
2021/08/21 07:03:57;;;;;;;6.53;5.90;;;27.30;99.90;;;;;;5053598;28;20479;-61
2021/08/21 07:06:24;;;;;;;9.50;6.60;;;27.80;99.90;;;;;;5053564;28;20452;-62
2021/08/21 07:08:52;;;;;;;7.37;6.67;;;28.00;99.90;;;;;;5054081;28;20497;-61
2021/08/21 07:11:19;;;;;;;7.70;7.00;;;28.10;99.90;;;;;;5045106;28;20513;-61
2021/08/21 07:13:46;;;;;;;7.70;6.53;;;28.30;99.90;;;;;;5053646;28;21015;-61
2021/08/21 07:16:14;;;;;;;7.60;6.30;;;27.90;99.90;;;;;;5053951;28;20473;-61
2021/08/21 07:18:41;;;;;;;9.50;7.20;;;28.20;99.90;;;;;;5053721;28;20456;-62
2021/08/21 07:21:10;;;;;;;8.07;7.10;;;28.20;99.90;;;;;;5053607;28;20532;-61
2021/08/21 07:23:37;;;;;;;8.50;7.63;;;27.80;99.90;;;;;;5052294;28;20572;-61
2021/08/21 07:26:05;;;;;;;7.43;6.60;;;28.10;99.90;;;;;;5053534;28;20451;-61
2021/08/21 07:28:33;;;;;;;8.00;7.07;;;28.10;99.90;;;;;;5053896;28;20447;-61
2021/08/21 07:31:00;;;;;;;7.70;7.00;;;28.30;99.90;;;;;;5052606;28;21083;-61
2021/08/21 07:33:28;;;;;;;7.40;6.70;;;28.70;99.90;;;;;;5053590;28;20448;-61
2021/08/21 07:35:55;;;;;;;7.93;7.13;;;28.90;99.90;;;;;;5053826;28;20546;-61
2021/08/21 07:38:22;;;;;;;7.40;6.70;;;28.80;99.90;;;;;;5053663;28;20455;-62
2021/08/21 07:40:50;;;;;;;7.43;6.63;;;29.00;99.90;;;;;;5052806;28;20583;-62
2021/08/21 07:43:18;;;;;;;8.63;7.10;;;29.10;99.90;;;;;;5053143;28;21013;-61
2021/08/21 07:45:46;;;;;;;7.67;6.93;;;29.50;99.90;;;;;;5053342;28;21003;-61
2021/08/21 07:48:14;;;;;;;7.50;6.80;;;28.50;99.90;;;;;;5047157;28;20509;-62
2021/08/21 07:50:41;;;;;;;7.70;6.90;;;28.00;99.90;;;;;;5053234;28;21033;-62
2021/08/21 07:53:08;;;;;;;7.83;6.93;;;27.90;99.90;;;;;;5053188;28;20463;-62
2021/08/21 07:55:36;;;;;;;8.40;6.93;;;28.30;99.90;;;;;;5052066;28;20585;-62
2021/08/21 07:58:04;;;;;;;7.40;6.70;;;28.80;99.90;;;;;;5053224;28;20456;-61
2021/08/21 08:00:33;;;;;;;7.90;7.10;;;29.00;99.90;;;;;;5053093;28;20535;-61
2021/08/21 08:03:00;;;;;;;7.30;6.60;;;27.40;99.90;;;;;;5052628;28;20491;-62
2021/08/21 08:05:28;;;;;;;7.53;6.70;;;27.80;99.90;;;;;;5053228;28;20509;-61
2021/08/21 08:07:55;;;;;;;7.17;6.57;;;28.40;99.90;;;;;;5052679;28;20879;-61
2021/08/21 08:10:22;;;;;;;7.83;6.93;;;28.80;99.90;;;;;;5052963;28;20938;-61
2021/08/21 08:12:49;;;;;;;7.83;7.03;;;29.00;99.90;;;;;;5044780;28;20534;-62
2021/08/21 08:15:17;;;;;;;14.43;7.30;;;29.00;99.90;;;;;;5049184;28;20535;-61
2021/08/21 08:17:45;;;;;;;7.93;6.90;;;29.20;99.90;;;;;;5052011;28;20510;-62
2021/08/21 08:20:12;;;;;;;8.50;7.50;;;29.10;99.90;;;;;;5052400;28;20452;-61
2021/08/21 08:22:39;;;;;;;7.40;6.60;;;29.10;99.90;;;;;;5051999;28;20487;-62
2021/08/21 08:25:08;;;;;;;7.40;6.50;;;28.70;99.90;;;;;;5052213;28;20907;-61
2021/08/21 08:27:35;;;;;;;7.23;6.53;;;28.80;99.90;;;;;;5051645;28;20475;-61
2021/08/21 08:30:02;;;;;;;10.93;7.30;;;29.30;99.90;;;;;;5032741;28;20509;-61
2021/08/21 08:32:29;;;;;;;7.90;7.03;;;29.80;99.90;;;;;;5032589;28;20472;-62
2021/08/21 08:34:57;;;;;;;7.50;6.70;;;30.00;99.90;;;;;;5032695;28;20448;-62
2021/08/21 08:37:28;;;;;;;8.00;7.30;;;29.70;99.90;;;;;;5033733;28;20498;-61
2021/08/21 08:39:55;;;;;;;8.20;7.40;;;29.80;99.90;;;;;;5052471;28;20980;-61
2021/08/21 08:42:22;;;;;;;8.10;6.80;;;30.00;99.90;;;;;;5051891;28;20468;-61
2021/08/21 08:44:50;;;;;;;7.20;6.60;;;29.80;99.90;;;;;;5052099;28;20477;-62
2021/08/21 08:47:18;;;;;;;8.83;6.67;;;29.90;99.90;;;;;;5052228;28;20513;-61
2021/08/21 08:49:46;;;;;;;10.63;7.00;;;29.90;99.90;;;;;;5052094;28;20999;-61
2021/08/21 08:52:15;;;;;;;10.73;7.07;;;29.60;99.90;;;;;;5051979;28;20563;-61
2021/08/21 08:54:42;;;;;;;8.57;7.67;;;29.50;99.90;;;;;;5051502;28;20448;-62
2021/08/21 08:57:10;;;;;;;7.60;6.80;;;30.10;99.90;;;;;;5052319;28;20452;-61
2021/08/21 08:59:37;;;;;;;7.70;7.00;;;30.00;99.90;;;;;;5051683;28;20501;-61
2021/08/21 09:02:04;;;;;;;7.77;6.97;;;30.30;99.90;;;;;;5051657;28;20487;-61
2021/08/21 09:04:31;;;;;;;9.47;7.40;;;30.90;99.90;;;;;;5050630;28;20479;-61
2021/08/21 09:06:58;;;;;;;8.37;6.30;;;30.90;99.90;;;;;;5039195;28;20456;-61
2021/08/21 09:09:27;;;;;;;11.30;7.77;;;30.80;99.90;;;;;;5050763;28;20452;-61
2021/08/21 09:11:55;;;;;;;7.33;6.70;;;30.70;99.90;;;;;;5064012;28;20513;-62
2021/08/21 09:14:29;;;;;;;9.40;7.60;;;30.70;99.90;;;;;;5032073;28;20477;-62
2021/08/21 09:17:18;;;;;;;8.43;7.53;;;30.70;99.90;;;;;;5039901;28;20448;-61
2021/08/21 09:19:45;;;;;;;9.20;7.23;;;30.90;99.90;;;;;;5047763;28;20946;-61
2021/08/21 09:22:13;;;;;;;10.17;6.80;;;30.80;99.90;;;;;;5051408;28;20471;-61
2021/08/21 09:24:43;;;;;;;7.20;6.50;;;31.00;99.90;;;;;;5050817;28;20486;-62
2021/08/21 09:27:18;;;;;;;8.10;7.30;;;31.20;99.90;;;;;;5040849;28;20449;-62
2021/08/21 09:29:46;;;;;;;7.10;6.40;;;31.50;99.90;;;;;;5031611;28;20452;-61
2021/08/21 09:32:13;;;;;;;8.27;6.90;;;31.90;99.90;;;;;;5049429;28;20525;-62
2021/08/21 09:34:40;;;;;;;7.70;7.00;;;31.80;99.90;;;;;;5050964;28;20448;-62
2021/08/21 09:37:10;;;;;;;7.90;7.20;;;31.90;99.90;;;;;;5051647;28;20494;-62
2021/08/21 09:39:39;;;;;;;8.50;7.60;;;31.80;99.90;;;;;;5051325;28;20532;-61
2021/08/21 09:42:09;;;;;;;7.73;7.03;;;31.40;99.90;;;;;;5051291;28;20542;-61
2021/08/21 09:44:39;;;;;;;7.63;6.93;;;31.60;99.90;;;;;;5050943;28;20480;-61
2021/08/21 09:47:11;;;;;;;8.73;7.70;;;31.70;99.90;;;;;;5051540;28;20443;-61
2021/08/21 09:49:38;;;;;;;7.80;7.00;;;31.30;99.90;;;;;;5051648;28;20505;-61
2021/08/21 09:52:07;;;;;;;9.63;7.80;;;30.80;99.90;;;;;;5050947;28;20532;-62
2021/08/21 09:54:34;;;;;;;8.37;7.57;;;30.90;99.90;;;;;;5051382;28;20447;-61
2021/08/21 09:57:01;;;;;;;9.27;7.53;;;31.50;99.90;;;;;;5048623;28;20876;-61
2021/08/21 09:59:39;;;;;;;8.90;7.50;;;31.80;99.90;;;;;;5049452;28;20501;-62
2021/08/21 10:02:07;;;;;;;7.87;7.17;;;31.70;99.90;;;;;;5035050;28;20887;-61
2021/08/21 10:04:35;;;;;;;9.90;7.60;;;31.90;99.90;;;;;;5032243;28;20486;-62
2021/08/21 10:07:05;;;;;;;7.30;6.60;;;32.00;99.90;;;;;;5030544;28;20448;-62
2021/08/21 10:09:33;;;;;;;6.70;6.10;;;32.00;99.90;;;;;;5030518;28;20441;-62
2021/08/21 10:12:00;;;;;;;7.97;7.13;;;32.10;99.90;;;;;;5031243;28;20483;-61
2021/08/21 10:14:29;;;;;;;8.63;7.73;;;31.40;99.90;;;;;;5031913;28;20947;-62
2021/08/21 10:16:58;;;;;;;9.70;7.83;;;31.40;99.90;;;;;;5034414;28;20448;-62
2021/08/21 10:19:25;;;;;;;8.23;7.40;;;31.60;99.90;;;;;;5049761;28;20451;-62
2021/08/21 10:21:55;;;;;;;9.30;7.70;;;31.90;99.90;;;;;;5049652;28;20459;-62
2021/08/21 10:24:29;;;;;;;10.33;7.80;;;31.90;99.90;;;;;;5049526;28;20541;-61
2021/08/21 10:27:02;;;;;;;8.17;7.47;;;31.40;99.90;;;;;;5047076;28;20536;-62
2021/08/21 10:29:29;;;;;;;11.70;9.03;;;31.80;99.90;;;;;;5040108;28;20494;-61
2021/08/21 10:31:58;;;;;;;9.47;8.57;;;32.30;99.90;;;;;;5042492;28;20925;-62
2021/08/21 10:34:25;;;;;;;10.10;9.07;;;31.60;99.90;;;;;;5052916;28;20494;-61
2021/08/21 10:36:55;;;;;;;13.20;10.80;;;31.60;99.90;;;;;;5053327;28;20447;-61
2021/08/21 10:39:34;;;;;;;11.37;10.17;;;30.20;99.90;;;;;;5053277;28;20440;-61
2021/08/21 10:42:23;;;;;;;11.63;10.43;;;30.30;99.90;;;;;;5049588;28;20559;-61
2021/08/21 10:44:51;;;;;;;13.97;11.67;;;29.90;99.90;;;;;;5034678;28;20901;-61
2021/08/21 10:47:40;;;;;;;14.00;10.20;;;29.00;99.90;;;;;;5033822;28;20506;-61
2021/08/21 10:50:30;;;;;;;12.33;10.80;;;28.90;99.90;;;;;;5052464;28;20447;-61
2021/08/21 10:52:57;;;;;;;11.70;10.40;;;29.20;99.90;;;;;;5034793;28;20555;-61
2021/08/21 10:55:26;;;;;;;11.20;10.10;;;29.60;99.90;;;;;;5052619;28;20501;-61
2021/08/21 10:58:09;;;;;;;12.70;11.47;;;29.10;99.90;;;;;;5052353;28;20937;-61
2021/08/21 11:00:50;;;;;;;11.37;10.17;;;29.10;99.90;;;;;;5037722;28;20444;-61
2021/08/21 11:03:46;;;;;;;12.23;10.43;;;28.40;99.90;;;;;;5050621;28;20945;-61
2021/08/21 11:06:15;;;;;;;11.17;9.77;;;28.30;99.90;;;;;;5053545;28;20452;-61
2021/08/21 11:08:59;;;;;;;13.50;10.07;;;28.20;99.90;;;;;;5053964;28;20826;-61
2021/08/21 11:11:32;;;;;;;12.80;9.07;;;28.20;99.90;;;;;;5034252;28;20534;-60
2021/08/21 11:14:02;;;;;;;9.80;8.80;;;27.60;99.90;;;;;;5050170;28;20443;-61
2021/08/21 11:16:48;;;;;;;11.50;10.30;;;27.80;99.90;;;;;;5053660;28;20448;-61
2021/08/21 11:19:34;;;;;;;9.20;8.17;;;27.90;99.90;;;;;;5054262;28;20451;-61
2021/08/21 11:22:30;;;;;;;12.87;8.77;;;28.20;99.90;;;;;;5050354;28;20909;-62
2021/08/21 11:25:11;;;;;;;8.93;8.13;;;28.20;99.90;;;;;;5018629;28;20483;-61
2021/08/21 11:27:39;;;;;;;9.70;8.70;;;28.30;99.90;;;;;;5052188;28;20509;-61
2021/08/21 11:30:27;;;;;;;9.77;8.53;;;28.50;99.90;;;;;;5051635;28;20509;-61
2021/08/21 11:33:14;;;;;;;10.27;8.57;;;28.10;99.90;;;;;;5049251;28;20494;-61
2021/08/21 11:35:51;;;;;;;10.10;8.33;;;28.20;99.90;;;;;;5037651;28;20455;-61
2021/08/21 11:38:26;;;;;;;9.70;8.23;;;28.20;99.90;;;;;;5041348;28;20448;-62
2021/08/21 11:40:54;;;;;;;9.17;8.27;;;28.30;99.90;;;;;;5047006;28;20447;-61
2021/08/21 11:43:23;;;;;;;10.20;8.50;;;28.30;99.90;;;;;;5051123;28;20448;-61
2021/08/21 11:45:51;;;;;;;11.07;9.20;;;27.70;99.90;;;;;;5048420;28;20439;-61
2021/08/21 11:48:19;;;;;;;9.87;8.73;;;26.90;99.90;;;;;;5038186;28;20947;-60
2021/08/21 11:50:49;;;;;;;9.17;7.80;;;26.90;99.90;;;;;;5033833;28;20457;-61
2021/08/21 11:53:20;;;;;;;8.77;7.40;;;27.30;99.90;;;;;;5044144;28;20520;-61
2021/08/21 11:55:47;;;;;;;10.27;9.17;;;27.80;99.90;;;;;;5051308;28;20451;-61
2021/08/21 11:58:15;;;;;;;9.73;7.17;;;28.00;99.90;;;;;;5051168;28;21004;-61
2021/08/21 12:00:44;;;;;;;9.63;7.77;;;28.10;99.90;;;;;;5051365;28;20465;-61
2021/08/21 12:03:13;;;;;;;9.07;7.33;;;28.10;99.90;;;;;;5051606;28;20452;-61
2021/08/21 12:05:42;;;;;;;7.47;6.77;;;27.80;99.90;;;;;;5051914;28;20440;-61
2021/08/21 12:08:22;;;;;;;7.93;7.10;;;28.00;99.90;;;;;;5051593;28;20501;-61
2021/08/21 12:10:54;;;;;;;11.53;7.40;;;28.10;99.90;;;;;;5048895;28;20969;-60
2021/08/21 12:13:26;;;;;;;8.80;7.70;;;28.00;99.90;;;;;;5050955;28;20448;-61
2021/08/21 12:15:54;;;;;;;8.30;7.13;;;28.00;99.90;;;;;;5051750;28;20506;-61
2021/08/21 12:18:23;;;;;;;7.57;6.80;;;27.70;99.90;;;;;;5051766;28;20521;-61
2021/08/21 12:20:50;;;;;;;8.80;6.80;;;27.60;99.90;;;;;;5047393;28;20937;-61
2021/08/21 12:23:17;;;;;;;9.20;7.30;;;27.70;99.90;;;;;;5051091;28;20448;-61
2021/08/21 12:25:57;;;;;;;7.43;6.40;;;27.60;99.90;;;;;;5050176;28;20479;-61
2021/08/21 12:28:25;;;;;;;10.47;6.83;;;27.70;99.90;;;;;;5050816;28;20455;-61
2021/08/21 12:30:57;;;;;;;7.30;6.60;;;27.70;99.90;;;;;;5050533;28;20491;-61
2021/08/21 12:33:33;;;;;;;8.50;6.57;;;27.70;99.90;;;;;;5050229;28;20443;-61
2021/08/21 12:36:14;;;;;;;6.87;6.13;;;27.70;99.90;;;;;;5044548;28;20865;-61
2021/08/21 12:38:57;;;;;;;8.60;7.10;;;27.80;99.90;;;;;;5032216;28;20507;-61
2021/08/21 12:41:26;;;;;;;6.90;6.20;;;28.10;99.90;;;;;;5033325;28;20473;-61
2021/08/21 12:44:06;;;;;;;7.50;6.53;;;28.00;99.90;;;;;;5038760;28;20537;-61